createdAt,value
2017-09-19T00:00:07.948Z,21.53
2017-09-19T00:01:18.017Z,21.56
2017-09-19T00:02:27.542Z,21.54
2017-09-19T00:03:36.702Z,21.61
2017-09-19T00:04:45.881Z,21.54
2017-09-19T00:05:55.734Z,21.52
2017-09-19T00:07:05.332Z,21.54
2017-09-19T00:08:14.722Z,21.59
2017-09-19T00:09:25.229Z,21.53
2017-09-19T00:10:35.718Z,21.49
2017-09-19T00:11:45.092Z,21.59
2017-09-19T00:12:54.407Z,21.53
2017-09-19T00:14:03.820Z,21.56
2017-09-19T00:15:12.954Z,21.52
2017-09-19T00:16:22.838Z,21.54
2017-09-19T00:17:32.341Z,21.56
2017-09-19T00:18:42.131Z,21.56
2017-09-19T00:19:51.483Z,21.56
2017-09-19T00:21:00.678Z,21.61
2017-09-19T00:22:10.152Z,21.56
2017-09-19T00:23:19.578Z,21.56
2017-09-19T00:24:28.877Z,21.58
2017-09-19T00:25:38.331Z,21.56
2017-09-19T00:26:48.180Z,21.52
2017-09-19T00:27:57.813Z,21.59
2017-09-19T00:29:07.422Z,21.56
2017-09-19T00:30:16.866Z,21.59
2017-09-19T00:31:26.240Z,21.56
2017-09-19T00:32:35.179Z,21.56
2017-09-19T00:33:44.628Z,21.59
2017-09-19T00:34:53.644Z,21.5
2017-09-19T00:36:03.340Z,21.58
2017-09-19T00:37:13.420Z,21.59
2017-09-19T00:38:23.442Z,21.49
2017-09-19T00:39:32.493Z,21.56
2017-09-19T00:40:41.904Z,21.52
2017-09-19T00:41:52.370Z,21.58
2017-09-19T00:43:01.875Z,21.46
2017-09-19T00:44:10.961Z,21.56
2017-09-19T00:45:20.344Z,21.56
2017-09-19T00:46:29.432Z,21.44
2017-09-19T00:47:38.912Z,21.49
2017-09-19T00:48:48.581Z,21.52
2017-09-19T00:49:57.574Z,21.47
2017-09-19T00:51:07.031Z,21.49
2017-09-19T00:52:15.982Z,21.47
2017-09-19T00:53:24.952Z,21.5
2017-09-19T00:54:33.917Z,21.54
2017-09-19T00:55:42.878Z,21.53
2017-09-19T00:56:51.844Z,21.46
2017-09-19T00:58:01.744Z,21.5
2017-09-19T00:59:10.391Z,21.54
2017-09-19T01:00:20.315Z,21.5
2017-09-19T01:01:29.910Z,21.46
2017-09-19T01:02:39.246Z,21.52
2017-09-19T01:03:47.903Z,21.53
2017-09-19T01:04:56.865Z,21.53
2017-09-19T01:06:05.843Z,21.53
2017-09-19T01:07:14.861Z,21.44
2017-09-19T01:08:24.508Z,21.5
2017-09-19T01:09:33.474Z,21.53
2017-09-19T01:10:42.442Z,21.53
2017-09-19T01:11:51.405Z,21.53
2017-09-19T01:13:00.402Z,21.52
2017-09-19T01:14:09.365Z,21.5
2017-09-19T01:15:18.651Z,21.52
2017-09-19T01:16:28.243Z,21.47
2017-09-19T01:17:37.215Z,21.47
2017-09-19T01:18:46.169Z,21.49
2017-09-19T01:19:55.128Z,21.44
2017-09-19T01:21:04.393Z,21.49
2017-09-19T01:22:13.363Z,21.52
2017-09-19T01:23:22.005Z,21.5
2017-09-19T01:24:30.662Z,21.5
2017-09-19T01:25:39.628Z,21.47
2017-09-19T01:26:48.929Z,21.5
2017-09-19T01:27:57.569Z,21.54
2017-09-19T01:29:07.158Z,21.49
2017-09-19T01:30:15.829Z,21.49
2017-09-19T01:31:25.117Z,21.49
2017-09-19T01:32:34.390Z,21.47
2017-09-19T01:33:43.339Z,21.37
2017-09-19T01:34:52.626Z,21.4
2017-09-19T01:36:02.212Z,21.4
2017-09-19T01:37:10.880Z,21.53
2017-09-19T01:38:20.634Z,21.52
2017-09-19T01:39:29.597Z,21.43
2017-09-19T01:40:38.586Z,21.52
2017-09-19T01:41:47.885Z,21.37
2017-09-19T01:42:56.844Z,21.44
2017-09-19T01:44:05.799Z,21.42
2017-09-19T01:45:15.081Z,21.38
2017-09-19T01:46:24.367Z,21.37
2017-09-19T01:47:33.021Z,21.44
2017-09-19T01:48:42.000Z,21.4
2017-09-19T01:49:51.606Z,21.4
2017-09-19T01:51:00.574Z,21.37
2017-09-19T01:52:09.859Z,21.46
2017-09-19T01:53:18.500Z,21.44
2017-09-19T01:54:27.778Z,21.44
2017-09-19T01:55:36.739Z,21.42
2017-09-19T01:56:46.019Z,21.4
2017-09-19T01:57:55.305Z,21.46
2017-09-19T01:59:03.957Z,21.37
2017-09-19T02:00:12.941Z,21.4
2017-09-19T02:01:22.219Z,21.47
2017-09-19T02:02:31.162Z,21.43
2017-09-19T02:03:40.127Z,21.49
2017-09-19T02:04:49.723Z,21.46
2017-09-19T02:05:58.679Z,21.46
2017-09-19T02:07:07.337Z,21.42
2017-09-19T02:08:16.635Z,21.44
2017-09-19T02:09:25.294Z,21.4
2017-09-19T02:10:34.271Z,21.47
2017-09-19T02:11:43.865Z,21.43
2017-09-19T02:12:52.511Z,21.44
2017-09-19T02:14:01.161Z,21.4
2017-09-19T02:15:10.447Z,21.43
2017-09-19T02:16:19.709Z,21.44
2017-09-19T02:17:28.671Z,21.46
2017-09-19T02:18:37.944Z,21.43
2017-09-19T02:19:47.231Z,21.43
2017-09-19T02:20:56.194Z,21.44
2017-09-19T02:22:05.245Z,21.49
2017-09-19T02:23:14.208Z,21.46
2017-09-19T02:24:22.873Z,21.44
2017-09-19T02:25:32.180Z,21.42
2017-09-19T02:26:41.448Z,21.4
2017-09-19T02:27:50.410Z,21.42
2017-09-19T02:28:59.103Z,21.4
2017-09-19T02:30:07.750Z,21.47
2017-09-19T02:31:17.033Z,21.44
2017-09-19T02:32:25.736Z,21.5
2017-09-19T02:33:35.014Z,21.43
2017-09-19T02:34:44.593Z,21.43
2017-09-19T02:35:53.222Z,21.4
2017-09-19T02:37:02.192Z,21.4
2017-09-19T02:38:11.156Z,21.43
2017-09-19T02:39:20.434Z,21.42
2017-09-19T02:40:29.708Z,21.43
2017-09-19T02:41:38.677Z,21.49
2017-09-19T02:42:47.642Z,21.42
2017-09-19T02:43:56.602Z,21.44
2017-09-19T02:45:05.582Z,21.43
2017-09-19T02:46:14.862Z,21.43
2017-09-19T02:47:24.146Z,21.42
2017-09-19T02:48:33.750Z,21.44
2017-09-19T02:49:42.714Z,21.47
2017-09-19T02:50:51.673Z,21.4
2017-09-19T02:52:00.952Z,21.35
2017-09-19T02:53:10.564Z,21.49
2017-09-19T02:54:20.203Z,21.43
2017-09-19T02:55:28.864Z,21.34
2017-09-19T02:56:37.826Z,21.47
2017-09-19T02:57:46.849Z,21.47
2017-09-19T02:58:56.126Z,21.42
2017-09-19T03:00:04.802Z,21.35
2017-09-19T03:01:13.440Z,21.47
2017-09-19T03:02:22.445Z,21.49
2017-09-19T03:03:31.424Z,21.49
2017-09-19T03:04:40.704Z,21.4
2017-09-19T03:05:49.978Z,21.43
2017-09-19T03:06:58.941Z,21.42
2017-09-19T03:08:08.245Z,21.38
2017-09-19T03:09:17.541Z,21.44
2017-09-19T03:10:26.816Z,21.46
2017-09-19T03:11:35.793Z,21.43
2017-09-19T03:12:45.389Z,21.43
2017-09-19T03:13:54.046Z,21.46
2017-09-19T03:15:03.008Z,21.43
2017-09-19T03:16:12.637Z,21.46
2017-09-19T03:17:21.618Z,21.43
2017-09-19T03:18:30.888Z,21.4
2017-09-19T03:19:39.544Z,21.43
2017-09-19T03:20:48.825Z,21.43
2017-09-19T03:21:57.808Z,21.42
2017-09-19T03:23:07.092Z,21.35
2017-09-19T03:24:16.392Z,21.43
2017-09-19T03:25:25.090Z,21.35
2017-09-19T03:26:34.684Z,21.43
2017-09-19T03:27:43.340Z,21.44
2017-09-19T03:28:52.336Z,21.4
2017-09-19T03:30:00.983Z,21.42
2017-09-19T03:31:09.941Z,21.44
2017-09-19T03:32:19.543Z,21.43
2017-09-19T03:33:28.818Z,21.34
2017-09-19T03:34:37.811Z,21.43
2017-09-19T03:35:47.096Z,21.44
2017-09-19T03:36:56.055Z,21.43
2017-09-19T03:38:05.340Z,21.43
2017-09-19T03:39:14.321Z,21.43
2017-09-19T03:40:23.277Z,21.4
2017-09-19T03:41:32.548Z,21.43
2017-09-19T03:42:41.814Z,21.37
2017-09-19T03:43:51.406Z,21.34
2017-09-19T03:45:00.431Z,21.42
2017-09-19T03:46:09.704Z,21.4
2017-09-19T03:47:18.675Z,21.32
2017-09-19T03:48:27.328Z,21.4
2017-09-19T03:49:36.950Z,21.44
2017-09-19T03:50:46.536Z,21.43
2017-09-19T03:51:55.190Z,21.44
2017-09-19T03:53:03.848Z,21.34
2017-09-19T03:54:13.151Z,21.43
2017-09-19T03:55:22.134Z,21.44
2017-09-19T03:56:31.092Z,21.44
2017-09-19T03:57:40.386Z,21.44
2017-09-19T03:58:49.373Z,21.4
2017-09-19T03:59:58.324Z,21.44
2017-09-19T04:01:08.006Z,21.42
2017-09-19T04:02:17.291Z,21.47
2017-09-19T04:03:25.937Z,21.34
2017-09-19T04:04:34.926Z,21.47
2017-09-19T04:05:43.917Z,21.47
2017-09-19T04:06:53.503Z,21.44
2017-09-19T04:08:02.155Z,21.47
2017-09-19T04:09:11.102Z,21.37
2017-09-19T04:10:20.072Z,21.47
2017-09-19T04:11:29.666Z,21.44
2017-09-19T04:12:39.574Z,21.42
2017-09-19T04:13:48.531Z,21.46
2017-09-19T04:14:58.127Z,21.43
2017-09-19T04:16:06.779Z,21.46
2017-09-19T04:17:15.742Z,21.43
2017-09-19T04:18:24.733Z,21.47
2017-09-19T04:19:33.386Z,21.43
2017-09-19T04:20:42.659Z,21.37
2017-09-19T04:21:51.609Z,21.46
2017-09-19T04:23:00.908Z,21.35
2017-09-19T04:24:09.885Z,21.42
2017-09-19T04:25:18.860Z,21.44
2017-09-19T04:26:27.524Z,21.42
2017-09-19T04:27:36.805Z,21.43
2017-09-19T04:28:45.773Z,21.46
2017-09-19T04:29:55.064Z,21.47
2017-09-19T04:31:04.132Z,21.37
2017-09-19T04:32:13.105Z,21.47
2017-09-19T04:33:22.099Z,21.37
2017-09-19T04:34:31.079Z,21.44
2017-09-19T04:35:40.389Z,21.49
2017-09-19T04:36:49.174Z,21.44
2017-09-19T04:37:57.842Z,21.44
2017-09-19T04:39:07.158Z,21.32
2017-09-19T04:40:15.819Z,21.43
2017-09-19T04:41:24.502Z,21.38
2017-09-19T04:42:34.235Z,21.42
2017-09-19T04:43:43.237Z,21.43
2017-09-19T04:44:52.888Z,21.46
2017-09-19T04:46:02.161Z,21.37
2017-09-19T04:47:10.803Z,21.43
2017-09-19T04:48:20.458Z,21.42
2017-09-19T04:49:29.141Z,21.44
2017-09-19T04:50:38.125Z,21.42
2017-09-19T04:51:46.773Z,21.44
2017-09-19T04:52:55.429Z,21.43
2017-09-19T04:54:04.729Z,21.4
2017-09-19T04:55:13.698Z,21.42
2017-09-19T04:56:23.135Z,21.47
2017-09-19T04:57:32.095Z,21.44
2017-09-19T04:58:41.082Z,21.47
2017-09-19T04:59:49.819Z,21.46
2017-09-19T05:00:59.137Z,21.43
2017-09-19T05:02:08.118Z,21.43
2017-09-19T05:03:17.128Z,21.46
2017-09-19T05:04:25.821Z,21.44
2017-09-19T05:05:34.832Z,21.43
2017-09-19T05:06:43.570Z,21.42
2017-09-19T05:07:52.843Z,21.4
2017-09-19T05:09:01.513Z,21.42
2017-09-19T05:10:10.830Z,21.47
2017-09-19T05:11:19.480Z,21.32
2017-09-19T05:12:28.794Z,21.43
2017-09-19T05:13:37.812Z,21.38
2017-09-19T05:14:47.203Z,21.34
2017-09-19T05:15:56.198Z,21.46
2017-09-19T05:17:05.201Z,21.31
2017-09-19T05:18:14.207Z,21.4
2017-09-19T05:19:23.178Z,21.38
2017-09-19T05:20:32.141Z,21.34
2017-09-19T05:21:41.105Z,21.46
2017-09-19T05:22:50.101Z,21.4
2017-09-19T05:23:59.705Z,21.37
2017-09-19T05:25:08.349Z,21.34
2017-09-19T05:26:17.632Z,21.34
2017-09-19T05:27:26.587Z,21.42
2017-09-19T05:28:35.541Z,21.44
2017-09-19T05:29:44.183Z,21.42
2017-09-19T05:30:52.864Z,21.44
2017-09-19T05:32:02.238Z,21.43
2017-09-19T05:33:11.272Z,21.37
2017-09-19T05:34:20.548Z,21.38
2017-09-19T05:35:29.813Z,21.34
2017-09-19T05:36:38.466Z,21.4
2017-09-19T05:37:47.451Z,21.42
2017-09-19T05:38:56.737Z,21.44
2017-09-19T05:40:06.344Z,21.4
2017-09-19T05:41:15.330Z,21.4
2017-09-19T05:42:23.990Z,21.43
2017-09-19T05:43:33.060Z,21.42
2017-09-19T05:44:41.986Z,21.37
2017-09-19T05:45:50.632Z,21.42
2017-09-19T05:46:59.590Z,21.34
2017-09-19T05:48:08.260Z,21.31
2017-09-19T05:49:17.544Z,21.4
2017-09-19T05:50:26.199Z,21.37
2017-09-19T05:51:34.853Z,21.44
2017-09-19T05:52:44.136Z,21.43
2017-09-19T05:53:53.404Z,21.38
2017-09-19T05:55:03.004Z,21.47
2017-09-19T05:56:12.315Z,21.47
2017-09-19T05:57:21.277Z,21.43
2017-09-19T05:58:30.225Z,21.44
2017-09-19T05:59:39.186Z,21.34
2017-09-19T06:00:48.151Z,21.44
2017-09-19T06:01:57.101Z,21.42
2017-09-19T06:03:06.161Z,21.43
2017-09-19T06:04:15.137Z,21.44
2017-09-19T06:05:24.728Z,21.42
2017-09-19T06:06:33.748Z,21.42
2017-09-19T06:07:43.042Z,21.38
2017-09-19T06:08:52.309Z,21.43
2017-09-19T06:10:01.980Z,21.38
2017-09-19T06:11:10.650Z,21.4
2017-09-19T06:12:20.307Z,21.49
2017-09-19T06:13:29.594Z,21.52
2017-09-19T06:14:38.251Z,21.4
2017-09-19T06:15:46.895Z,21.44
2017-09-19T06:16:55.860Z,21.49
2017-09-19T06:18:05.149Z,21.5
2017-09-19T06:19:14.742Z,21.52
2017-09-19T06:20:23.686Z,21.53
2017-09-19T06:21:32.660Z,21.49
2017-09-19T06:22:41.769Z,21.49
2017-09-19T06:23:50.713Z,21.53
2017-09-19T06:24:59.679Z,21.58
2017-09-19T06:26:08.337Z,21.56
2017-09-19T06:27:17.347Z,21.56
2017-09-19T06:28:26.654Z,21.64
2017-09-19T06:29:35.678Z,21.59
2017-09-19T06:30:44.652Z,21.64
2017-09-19T06:31:53.629Z,21.61
2017-09-19T06:33:02.890Z,21.58
2017-09-19T06:34:12.189Z,21.67
2017-09-19T06:35:22.101Z,21.64
2017-09-19T06:36:31.061Z,21.65
2017-09-19T06:37:40.055Z,21.64
2017-09-19T06:38:49.389Z,21.72
2017-09-19T06:39:58.347Z,21.74
2017-09-19T06:41:07.928Z,21.75
2017-09-19T06:42:16.589Z,21.75
2017-09-19T06:43:25.863Z,21.71
2017-09-19T06:44:35.224Z,21.72
2017-09-19T06:45:44.206Z,21.8
2017-09-19T06:46:53.478Z,21.77
2017-09-19T06:48:02.539Z,21.79
2017-09-19T06:49:11.210Z,21.82
2017-09-19T06:50:19.847Z,21.84
2017-09-19T06:51:29.141Z,21.82
2017-09-19T06:52:37.928Z,21.92
2017-09-19T06:53:46.958Z,21.94
2017-09-19T06:54:55.970Z,21.94
2017-09-19T06:56:05.642Z,21.86
2017-09-19T06:57:15.004Z,21.96
2017-09-19T06:58:23.990Z,21.84
2017-09-19T06:59:33.569Z,21.86
2017-09-19T07:00:42.908Z,21.91
2017-09-19T07:01:51.875Z,21.92
2017-09-19T07:03:01.816Z,21.91
2017-09-19T07:04:10.781Z,21.86
2017-09-19T07:05:19.789Z,21.92
2017-09-19T07:06:29.060Z,21.82
2017-09-19T07:07:38.068Z,21.84
2017-09-19T07:08:47.650Z,21.84
2017-09-19T07:09:56.607Z,21.84
2017-09-19T07:11:05.931Z,21.84
2017-09-19T07:12:14.580Z,21.75
2017-09-19T07:13:23.233Z,21.83
2017-09-19T07:14:32.240Z,21.79
2017-09-19T07:15:41.896Z,21.8
2017-09-19T07:16:50.853Z,21.79
2017-09-19T07:18:00.138Z,21.79
2017-09-19T07:19:09.093Z,21.8
2017-09-19T07:20:17.742Z,21.8
2017-09-19T07:21:26.699Z,21.79
2017-09-19T07:22:36.663Z,21.77
2017-09-19T07:23:45.332Z,21.8
2017-09-19T07:24:54.313Z,21.77
2017-09-19T07:26:03.904Z,21.8
2017-09-19T07:27:12.898Z,21.72
2017-09-19T07:28:22.169Z,21.74
2017-09-19T07:29:30.831Z,21.77
2017-09-19T07:30:40.420Z,21.75
2017-09-19T07:31:49.730Z,21.8
2017-09-19T07:32:58.376Z,21.72
2017-09-19T07:34:07.076Z,21.72
2017-09-19T07:35:16.750Z,21.77
2017-09-19T07:36:25.739Z,21.77
2017-09-19T07:37:34.446Z,21.82
2017-09-19T07:38:43.109Z,21.79
2017-09-19T07:39:52.763Z,21.72
2017-09-19T07:41:01.675Z,21.79
2017-09-19T07:42:10.641Z,21.82
2017-09-19T07:43:19.325Z,21.77
2017-09-19T07:44:28.641Z,21.77
2017-09-19T07:45:37.926Z,21.8
2017-09-19T07:46:47.685Z,21.79
2017-09-19T07:47:56.975Z,21.8
2017-09-19T07:49:05.994Z,21.83
2017-09-19T07:50:15.302Z,21.79
2017-09-19T07:51:24.601Z,21.84
2017-09-19T07:52:33.601Z,21.86
2017-09-19T07:53:42.954Z,21.75
2017-09-19T07:54:52.242Z,21.84
2017-09-19T07:56:01.208Z,21.92
2017-09-19T07:57:10.230Z,21.94
2017-09-19T07:58:19.832Z,22.02
2017-09-19T07:59:29.108Z,22.02
2017-09-19T08:00:37.772Z,22.05
2017-09-19T08:01:47.360Z,21.96
2017-09-19T08:02:56.016Z,22.09
2017-09-19T08:04:05.635Z,22.07
2017-09-19T08:05:14.681Z,22.14
2017-09-19T08:06:24.430Z,22.05
2017-09-19T08:07:33.726Z,22.07
2017-09-19T08:08:42.694Z,22.02
2017-09-19T08:09:52.280Z,21.99
2017-09-19T08:11:00.941Z,21.96
2017-09-19T08:12:10.228Z,21.99
2017-09-19T08:13:18.922Z,21.96
2017-09-19T08:14:27.578Z,21.98
2017-09-19T08:15:36.259Z,22
2017-09-19T08:16:44.940Z,21.94
2017-09-19T08:17:53.911Z,22.03
2017-09-19T08:19:02.572Z,21.94
2017-09-19T08:20:11.871Z,21.99
2017-09-19T08:21:21.154Z,21.98
2017-09-19T08:22:30.458Z,22.02
2017-09-19T08:23:39.745Z,21.99
2017-09-19T08:24:48.403Z,22
2017-09-19T08:25:57.695Z,21.92
2017-09-19T08:27:07.286Z,21.99
2017-09-19T08:28:16.617Z,22
2017-09-19T08:29:25.600Z,21.9
2017-09-19T08:30:35.191Z,22
2017-09-19T08:31:44.471Z,21.99
2017-09-19T08:32:53.427Z,21.99
2017-09-19T08:34:02.733Z,21.83
2017-09-19T08:35:11.387Z,21.94
2017-09-19T08:36:20.025Z,21.99
2017-09-19T08:37:28.683Z,21.96
2017-09-19T08:38:37.978Z,21.99
2017-09-19T08:39:47.583Z,21.94
2017-09-19T08:40:56.874Z,22.03
2017-09-19T08:42:06.173Z,21.94
2017-09-19T08:43:15.461Z,22.02
2017-09-19T08:44:24.420Z,22.02
2017-09-19T08:45:33.706Z,22
2017-09-19T08:46:42.672Z,21.94
2017-09-19T08:47:51.951Z,22
2017-09-19T08:49:00.603Z,21.9
2017-09-19T08:50:09.591Z,22.02
2017-09-19T08:51:18.559Z,22
2017-09-19T08:52:27.550Z,21.94
2017-09-19T08:53:37.150Z,22.02
2017-09-19T08:54:46.108Z,22.02
2017-09-19T08:55:56.033Z,21.99
2017-09-19T08:57:04.697Z,22.07
2017-09-19T08:58:14.009Z,22.09
2017-09-19T08:59:22.968Z,22.07
2017-09-19T09:00:32.289Z,22.15
2017-09-19T09:01:41.260Z,22.09
2017-09-19T09:02:49.920Z,22.03
2017-09-19T09:03:58.583Z,22.07
2017-09-19T09:05:07.247Z,21.96
2017-09-19T09:06:16.211Z,22.02
2017-09-19T09:07:25.498Z,21.99
2017-09-19T09:08:34.146Z,22
2017-09-19T09:09:43.454Z,21.94
2017-09-19T09:10:52.434Z,22.05
2017-09-19T09:12:02.041Z,22.02
2017-09-19T09:13:11.331Z,22.05
2017-09-19T09:14:20.306Z,21.94
2017-09-19T09:15:28.980Z,22.06
2017-09-19T09:16:38.582Z,22.06
2017-09-19T09:17:47.544Z,21.96
2017-09-19T09:18:56.188Z,21.98
2017-09-19T09:20:05.600Z,22.06
2017-09-19T09:21:14.560Z,21.99
2017-09-19T09:22:23.534Z,22
2017-09-19T09:23:32.517Z,21.94
2017-09-19T09:24:41.801Z,21.98
2017-09-19T09:25:51.103Z,22
2017-09-19T09:27:00.067Z,22
2017-09-19T09:28:09.668Z,21.98
2017-09-19T09:29:19.268Z,21.99
2017-09-19T09:30:28.241Z,21.96
2017-09-19T09:31:38.138Z,21.99
2017-09-19T09:32:47.439Z,21.98
2017-09-19T09:33:56.115Z,21.99
2017-09-19T09:35:05.394Z,21.94
2017-09-19T09:36:14.685Z,22.06
2017-09-19T09:37:23.978Z,21.94
2017-09-19T09:38:33.588Z,21.96
2017-09-19T09:39:42.897Z,21.99
2017-09-19T09:40:51.872Z,21.94
2017-09-19T09:42:00.520Z,21.99
2017-09-19T09:43:09.491Z,21.99
2017-09-19T09:44:18.496Z,21.99
2017-09-19T09:45:27.495Z,21.99
2017-09-19T09:46:36.167Z,22.06
2017-09-19T09:47:45.760Z,21.96
2017-09-19T09:48:55.047Z,22.05
2017-09-19T09:50:04.349Z,21.98
2017-09-19T09:51:13.047Z,21.96
2017-09-19T09:52:22.341Z,21.98
2017-09-19T09:53:31.563Z,21.99
2017-09-19T09:54:40.392Z,21.99
2017-09-19T09:55:49.823Z,21.99
2017-09-19T09:56:59.296Z,21.99
2017-09-19T09:58:08.820Z,22.05
2017-09-19T09:59:17.970Z,22
2017-09-19T10:00:27.439Z,22
2017-09-19T10:01:36.926Z,21.94
2017-09-19T10:02:46.675Z,21.94
2017-09-19T10:03:56.877Z,21.94
2017-09-19T10:05:05.739Z,21.94
2017-09-19T10:06:15.747Z,21.98
2017-09-19T10:07:25.472Z,21.88
2017-09-19T10:08:35.342Z,21.96
2017-09-19T10:09:44.414Z,21.98
2017-09-19T10:10:53.923Z,21.92
2017-09-19T10:12:03.163Z,21.98
2017-09-19T10:13:12.984Z,22.02
2017-09-19T10:14:22.771Z,22
2017-09-19T10:15:32.243Z,22.03
2017-09-19T10:16:42.623Z,21.98
2017-09-19T10:17:51.713Z,21.94
2017-09-19T10:19:00.998Z,22.02
2017-09-19T10:20:10.614Z,22.02
2017-09-19T10:21:19.577Z,22
2017-09-19T10:22:28.615Z,21.84
2017-09-19T10:23:37.609Z,22.03
2017-09-19T10:24:46.273Z,21.88
2017-09-19T10:25:55.896Z,22.02
2017-09-19T10:27:05.205Z,21.98
2017-09-19T10:28:14.172Z,21.94
2017-09-19T10:29:23.767Z,21.94
2017-09-19T10:30:33.051Z,21.96
2017-09-19T10:31:42.040Z,22.02
2017-09-19T10:32:51.011Z,21.99
2017-09-19T10:34:00.321Z,21.98
2017-09-19T10:35:09.279Z,21.98
2017-09-19T10:36:17.931Z,22.02
2017-09-19T10:37:26.595Z,21.96
2017-09-19T10:38:35.563Z,21.96
2017-09-19T10:39:44.522Z,22.06
2017-09-19T10:40:53.187Z,21.98
2017-09-19T10:42:02.515Z,22.07
2017-09-19T10:43:11.798Z,21.99
2017-09-19T10:44:21.706Z,22.05
2017-09-19T10:45:30.706Z,22.02
2017-09-19T10:46:39.350Z,22.05
2017-09-19T10:47:48.324Z,22
2017-09-19T10:48:57.619Z,22.06
2017-09-19T10:50:06.596Z,22.09
2017-09-19T10:51:15.917Z,22.07
2017-09-19T10:52:24.937Z,22.07
2017-09-19T10:53:33.915Z,22.09
2017-09-19T10:54:43.569Z,22.05
2017-09-19T10:55:52.871Z,22.09
2017-09-19T10:57:01.703Z,22.1
2017-09-19T10:58:11.335Z,22.05
2017-09-19T10:59:19.992Z,22
2017-09-19T11:00:29.291Z,22.17
2017-09-19T11:01:38.309Z,22.03
2017-09-19T11:02:47.613Z,22.02
2017-09-19T11:03:56.270Z,22.06
2017-09-19T11:05:05.260Z,22.02
2017-09-19T11:06:14.256Z,22.09
2017-09-19T11:07:23.859Z,22.02
2017-09-19T11:08:33.157Z,22.09
2017-09-19T11:09:41.820Z,22.07
2017-09-19T11:10:51.155Z,22.02
2017-09-19T11:12:00.800Z,22.05
2017-09-19T11:13:09.784Z,22.02
2017-09-19T11:14:19.113Z,22.07
2017-09-19T11:15:28.431Z,22.07
2017-09-19T11:16:37.406Z,22.06
2017-09-19T11:17:46.373Z,22.09
2017-09-19T11:18:55.988Z,22.05
2017-09-19T11:20:05.262Z,22.02
2017-09-19T11:21:14.229Z,22.03
2017-09-19T11:22:23.196Z,22.03
2017-09-19T11:23:32.516Z,22.1
2017-09-19T11:24:41.793Z,22.06
2017-09-19T11:25:50.783Z,22.1
2017-09-19T11:26:59.756Z,22.18
2017-09-19T11:28:08.717Z,22.15
2017-09-19T11:29:18.304Z,22.14
2017-09-19T11:30:27.578Z,22.17
2017-09-19T11:31:36.863Z,22.1
2017-09-19T11:32:46.444Z,22.15
2017-09-19T11:33:55.442Z,22.15
2017-09-19T11:35:04.428Z,22.2
2017-09-19T11:36:13.712Z,22.21
2017-09-19T11:37:23.014Z,22.15
2017-09-19T11:38:32.303Z,22.18
2017-09-19T11:39:41.573Z,22.17
2017-09-19T11:40:50.556Z,22.15
2017-09-19T11:41:59.205Z,22.14
2017-09-19T11:43:07.849Z,22.12
2017-09-19T11:44:16.519Z,22.09
2017-09-19T11:45:25.188Z,22.1
2017-09-19T11:46:33.847Z,22.05
2017-09-19T11:47:42.807Z,22.07
2017-09-19T11:48:51.780Z,22.09
2017-09-19T11:50:01.133Z,22.09
2017-09-19T11:51:10.412Z,22.06
2017-09-19T11:52:19.062Z,22.07
2017-09-19T11:53:27.780Z,22.07
2017-09-19T11:54:36.452Z,22.05
2017-09-19T11:55:45.769Z,22.05
2017-09-19T11:56:54.725Z,22.05
2017-09-19T11:58:03.397Z,22.09
2017-09-19T11:59:12.377Z,22.05
2017-09-19T12:00:21.031Z,22.14
2017-09-19T12:01:30.012Z,22.18
2017-09-19T12:02:39.302Z,22.21
2017-09-19T12:03:48.924Z,22.22
2017-09-19T12:04:57.644Z,22.21
2017-09-19T12:06:06.254Z,22.17
2017-09-19T12:07:15.539Z,22.2
2017-09-19T12:08:24.210Z,22.18
2017-09-19T12:09:32.879Z,22.14
2017-09-19T12:10:41.875Z,22.24
2017-09-19T12:11:50.535Z,22.27
2017-09-19T12:12:59.819Z,22.28
2017-09-19T12:14:08.789Z,22.31
2017-09-19T12:15:17.753Z,22.21
2017-09-19T12:16:27.346Z,22.25
2017-09-19T12:17:36.949Z,22.24
2017-09-19T12:18:45.623Z,22.28
2017-09-19T12:19:54.888Z,22.3
2017-09-19T12:21:03.853Z,22.24
2017-09-19T12:22:13.192Z,22.36
2017-09-19T12:23:21.842Z,22.22
2017-09-19T12:24:30.807Z,22.22
2017-09-19T12:25:39.764Z,22.27
2017-09-19T12:26:49.060Z,22.22
2017-09-19T12:27:57.702Z,22.24
2017-09-19T12:29:06.375Z,22.25
2017-09-19T12:30:15.966Z,22.28
2017-09-19T12:31:24.929Z,22.28
2017-09-19T12:32:33.576Z,22.2
2017-09-19T12:33:43.186Z,22.22
2017-09-19T12:34:52.781Z,22.21
2017-09-19T12:36:01.749Z,22.21
2017-09-19T12:37:10.726Z,22.21
2017-09-19T12:38:19.400Z,22.18
2017-09-19T12:39:28.986Z,22.22
2017-09-19T12:40:37.944Z,22.22
2017-09-19T12:41:46.594Z,22.22
2017-09-19T12:42:56.827Z,22.2
2017-09-19T12:44:05.500Z,22.2
2017-09-19T12:45:14.463Z,22.25
2017-09-19T12:46:23.740Z,22.22
2017-09-19T12:47:33.034Z,22.18
2017-09-19T12:48:42.315Z,22.18
2017-09-19T12:49:50.964Z,22.25
2017-09-19T12:50:59.947Z,22.24
2017-09-19T12:52:09.236Z,22.2
2017-09-19T12:53:18.204Z,22.22
2017-09-19T12:54:27.182Z,22.31
2017-09-19T12:55:36.463Z,22.31
2017-09-19T12:56:45.121Z,22.28
2017-09-19T12:57:53.809Z,22.25
2017-09-19T12:59:02.797Z,22.28
2017-09-19T13:00:11.773Z,22.31
2017-09-19T13:01:20.793Z,22.33
2017-09-19T13:02:29.762Z,22.25
2017-09-19T13:03:38.733Z,22.3
2017-09-19T13:04:47.701Z,22.33
2017-09-19T13:05:57.301Z,22.3
2017-09-19T13:07:06.624Z,22.35
2017-09-19T13:08:15.939Z,22.31
2017-09-19T13:09:24.632Z,22.28
2017-09-19T13:10:33.621Z,22.3
2017-09-19T13:11:42.271Z,22.25
2017-09-19T13:12:50.940Z,22.28
2017-09-19T13:13:59.907Z,22.28
2017-09-19T13:15:09.528Z,22.24
2017-09-19T13:16:18.551Z,22.24
2017-09-19T13:17:28.176Z,22.3
2017-09-19T13:18:37.477Z,22.33
2017-09-19T13:19:46.767Z,22.22
2017-09-19T13:20:55.753Z,22.27
2017-09-19T13:22:05.049Z,22.3
2017-09-19T13:23:14.337Z,22.36
2017-09-19T13:24:23.648Z,22.36
2017-09-19T13:25:32.939Z,22.28
2017-09-19T13:26:41.588Z,22.3
2017-09-19T13:27:50.588Z,22.25
2017-09-19T13:28:59.568Z,22.27
2017-09-19T13:30:08.878Z,22.33
2017-09-19T13:31:17.850Z,22.27
2017-09-19T13:32:26.854Z,22.35
2017-09-19T13:33:35.845Z,22.3
2017-09-19T13:34:45.136Z,22.35
2017-09-19T13:35:54.139Z,22.39
2017-09-19T13:37:03.438Z,22.33
2017-09-19T13:38:12.291Z,22.35
2017-09-19T13:39:21.330Z,22.31
2017-09-19T13:40:30.319Z,22.35
2017-09-19T13:41:38.978Z,22.36
2017-09-19T13:42:47.990Z,22.33
2017-09-19T13:43:56.976Z,22.33
2017-09-19T13:45:06.028Z,22.36
2017-09-19T13:46:14.706Z,22.33
2017-09-19T13:47:24.023Z,22.27
2017-09-19T13:48:32.688Z,22.25
2017-09-19T13:49:41.995Z,22.27
2017-09-19T13:50:50.664Z,22.28
2017-09-19T13:51:59.961Z,22.25
2017-09-19T13:53:08.619Z,22.28
2017-09-19T13:54:17.284Z,22.28
2017-09-19T13:55:25.945Z,22.27
2017-09-19T13:56:35.232Z,22.27
2017-09-19T13:57:44.542Z,22.21
2017-09-19T13:58:54.141Z,22.24
2017-09-19T14:00:03.446Z,22.25
2017-09-19T14:01:12.750Z,22.2
2017-09-19T14:02:22.060Z,22.28
2017-09-19T14:03:31.345Z,22.22
2017-09-19T14:04:40.026Z,22.25
2017-09-19T14:05:49.335Z,22.25
2017-09-19T14:06:58.310Z,22.27
2017-09-19T14:08:07.927Z,22.31
2017-09-19T14:09:16.600Z,22.2
2017-09-19T14:10:25.906Z,22.27
2017-09-19T14:11:35.203Z,22.24
2017-09-19T14:12:44.197Z,22.3
2017-09-19T14:13:54.135Z,22.27
2017-09-19T14:15:03.433Z,22.3
2017-09-19T14:16:12.428Z,22.25
2017-09-19T14:17:21.712Z,22.25
2017-09-19T14:18:31.053Z,22.3
2017-09-19T14:19:39.721Z,22.31
2017-09-19T14:20:48.385Z,22.24
2017-09-19T14:21:57.676Z,22.27
2017-09-19T14:23:06.982Z,22.27
2017-09-19T14:24:16.274Z,22.27
2017-09-19T14:25:25.549Z,22.3
2017-09-19T14:26:34.861Z,22.31
2017-09-19T14:27:43.844Z,22.3
2017-09-19T14:28:52.855Z,22.28
2017-09-19T14:30:02.462Z,22.31
2017-09-19T14:31:11.454Z,22.36
2017-09-19T14:32:20.439Z,22.39
2017-09-19T14:33:30.037Z,22.33
2017-09-19T14:34:39.336Z,22.36
2017-09-19T14:35:48.983Z,22.36
2017-09-19T14:36:58.326Z,22.35
2017-09-19T14:38:07.612Z,22.37
2017-09-19T14:39:16.272Z,22.36
2017-09-19T14:40:25.257Z,22.39
2017-09-19T14:41:34.238Z,22.39
2017-09-19T14:42:42.893Z,22.37
2017-09-19T14:43:51.863Z,22.4
2017-09-19T14:45:00.851Z,22.35
2017-09-19T14:46:09.817Z,22.35
2017-09-19T14:47:18.785Z,22.35
2017-09-19T14:48:27.773Z,22.35
2017-09-19T14:49:36.740Z,22.33
2017-09-19T14:50:45.601Z,22.27
2017-09-19T14:51:54.909Z,22.31
2017-09-19T14:53:03.876Z,22.27
2017-09-19T14:54:12.540Z,22.21